sensor_id;sensor_type;location;lat;lon;timestamp;P1;durP1;ratioP1;P2;durP2;ratioP2
59458;SDS011;45269;43.568;22.244;2022-12-24T00:01:06;49.40;;;36.95;;
59458;SDS011;45269;43.568;22.244;2022-12-24T00:03:32;48.45;;;35.85;;
59458;SDS011;45269;43.568;22.244;2022-12-24T00:05:58;39.83;;;31.70;;
59458;SDS011;45269;43.568;22.244;2022-12-24T00:08:23;38.72;;;33.53;;
59458;SDS011;45269;43.568;22.244;2022-12-24T00:10:52;35.95;;;31.60;;
59458;SDS011;45269;43.568;22.244;2022-12-24T00:13:17;49.15;;;38.65;;
59458;SDS011;45269;43.568;22.244;2022-12-24T00:15:43;70.47;;;53.28;;
59458;SDS011;45269;43.568;22.244;2022-12-24T00:18:08;136.32;;;103.85;;
59458;SDS011;45269;43.568;22.244;2022-12-24T00:20:33;254.57;;;202.82;;
59458;SDS011;45269;43.568;22.244;2022-12-24T00:22:59;182.55;;;141.20;;
59458;SDS011;45269;43.568;22.244;2022-12-24T00:25:24;188.23;;;143.27;;
59458;SDS011;45269;43.568;22.244;2022-12-24T00:27:49;138.25;;;106.65;;
59458;SDS011;45269;43.568;22.244;2022-12-24T00:30:15;119.13;;;89.93;;
59458;SDS011;45269;43.568;22.244;2022-12-24T00:32:40;252.57;;;194.20;;
59458;SDS011;45269;43.568;22.244;2022-12-24T00:35:05;254.63;;;193.60;;
59458;SDS011;45269;43.568;22.244;2022-12-24T00:37:31;271.10;;;202.13;;
59458;SDS011;45269;43.568;22.244;2022-12-24T00:39:56;212.30;;;149.18;;
59458;SDS011;45269;43.568;22.244;2022-12-24T00:42:21;158.10;;;112.55;;
59458;SDS011;45269;43.568;22.244;2022-12-24T00:44:47;179.30;;;122.63;;
59458;SDS011;45269;43.568;22.244;2022-12-24T00:47:12;202.57;;;134.45;;
59458;SDS011;45269;43.568;22.244;2022-12-24T00:49:38;167.93;;;121.15;;
59458;SDS011;45269;43.568;22.244;2022-12-24T00:52:03;141.32;;;103.85;;
59458;SDS011;45269;43.568;22.244;2022-12-24T00:54:28;118.47;;;86.35;;
59458;SDS011;45269;43.568;22.244;2022-12-24T00:56:54;190.00;;;143.02;;
59458;SDS011;45269;43.568;22.244;2022-12-24T00:59:19;204.25;;;144.88;;
59458;SDS011;45269;43.568;22.244;2022-12-24T01:01:44;154.13;;;114.50;;
59458;SDS011;45269;43.568;22.244;2022-12-24T01:04:10;61.75;;;49.65;;
59458;SDS011;45269;43.568;22.244;2022-12-24T01:06:54;175.70;;;127.47;;
59458;SDS011;45269;43.568;22.244;2022-12-24T01:09:20;158.93;;;119.07;;
59458;SDS011;45269;43.568;22.244;2022-12-24T01:11:45;98.03;;;72.53;;
59458;SDS011;45269;43.568;22.244;2022-12-24T01:14:10;115.88;;;91.10;;
59458;SDS011;45269;43.568;22.244;2022-12-24T01:16:35;67.18;;;51.47;;
59458;SDS011;45269;43.568;22.244;2022-12-24T01:19:01;46.85;;;37.05;;
59458;SDS011;45269;43.568;22.244;2022-12-24T01:21:26;34.53;;;28.15;;
59458;SDS011;45269;43.568;22.244;2022-12-24T01:23:51;33.85;;;27.10;;
59458;SDS011;45269;43.568;22.244;2022-12-24T01:26:17;31.58;;;27.05;;
59458;SDS011;45269;43.568;22.244;2022-12-24T01:28:42;38.75;;;31.10;;
59458;SDS011;45269;43.568;22.244;2022-12-24T01:31:12;91.32;;;70.80;;
59458;SDS011;45269;43.568;22.244;2022-12-24T01:33:37;32.25;;;27.50;;
59458;SDS011;45269;43.568;22.244;2022-12-24T01:36:03;62.95;;;47.22;;
59458;SDS011;45269;43.568;22.244;2022-12-24T01:38:28;43.55;;;36.35;;
59458;SDS011;45269;43.568;22.244;2022-12-24T01:40:53;74.60;;;54.25;;
59458;SDS011;45269;43.568;22.244;2022-12-24T01:43:37;68.22;;;52.97;;
59458;SDS011;45269;43.568;22.244;2022-12-24T01:46:11;67.35;;;52.45;;
59458;SDS011;45269;43.568;22.244;2022-12-24T01:53:28;59.22;;;49.08;;
59458;SDS011;45269;43.568;22.244;2022-12-24T01:55:55;84.47;;;63.95;;
59458;SDS011;45269;43.568;22.244;2022-12-24T01:58:21;130.63;;;102.43;;
59458;SDS011;45269;43.568;22.244;2022-12-24T02:00:46;161.75;;;116.38;;
59458;SDS011;45269;43.568;22.244;2022-12-24T02:03:12;114.05;;;90.47;;
59458;SDS011;45269;43.568;22.244;2022-12-24T02:05:41;105.07;;;79.55;;
59458;SDS011;45269;43.568;22.244;2022-12-24T02:10:33;41.40;;;33.28;;
59458;SDS011;45269;43.568;22.244;2022-12-24T02:12:58;75.85;;;61.75;;
59458;SDS011;45269;43.568;22.244;2022-12-24T02:15:24;77.80;;;57.70;;
59458;SDS011;45269;43.568;22.244;2022-12-24T02:17:57;120.13;;;94.18;;
59458;SDS011;45269;43.568;22.244;2022-12-24T02:23:05;138.55;;;101.75;;
59458;SDS011;45269;43.568;22.244;2022-12-24T02:30:23;91.60;;;73.28;;
59458;SDS011;45269;43.568;22.244;2022-12-24T02:35:23;35.85;;;27.63;;
59458;SDS011;45269;43.568;22.244;2022-12-24T02:40:22;29.90;;;25.30;;
59458;SDS011;45269;43.568;22.244;2022-12-24T02:42:49;32.08;;;25.63;;
59458;SDS011;45269;43.568;22.244;2022-12-24T02:45:17;28.23;;;24.48;;
59458;SDS011;45269;43.568;22.244;2022-12-24T02:47:42;101.53;;;67.78;;
59458;SDS011;45269;43.568;22.244;2022-12-24T02:50:09;112.15;;;77.97;;
59458;SDS011;45269;43.568;22.244;2022-12-24T02:52:36;99.38;;;68.30;;
59458;SDS011;45269;43.568;22.244;2022-12-24T02:55:09;169.68;;;117.30;;
59458;SDS011;45269;43.568;22.244;2022-12-24T03:00:02;137.13;;;94.70;;
59458;SDS011;45269;43.568;22.244;2022-12-24T03:07:41;75.43;;;50.85;;
59458;SDS011;45269;43.568;22.244;2022-12-24T03:10:13;54.70;;;40.40;;
59458;SDS011;45269;43.568;22.244;2022-12-24T03:12:42;52.63;;;37.63;;
59458;SDS011;45269;43.568;22.244;2022-12-24T03:15:10;34.72;;;26.60;;
59458;SDS011;45269;43.568;22.244;2022-12-24T03:17:36;27.98;;;22.23;;
59458;SDS011;45269;43.568;22.244;2022-12-24T03:20:03;25.08;;;20.98;;
59458;SDS011;45269;43.568;22.244;2022-12-24T03:22:29;20.25;;;15.95;;
59458;SDS011;45269;43.568;22.244;2022-12-24T03:24:55;32.90;;;25.13;;
59458;SDS011;45269;43.568;22.244;2022-12-24T03:27:20;24.25;;;20.40;;
59458;SDS011;45269;43.568;22.244;2022-12-24T03:29:46;64.00;;;48.60;;
59458;SDS011;45269;43.568;22.244;2022-12-24T03:32:12;37.88;;;29.67;;
59458;SDS011;45269;43.568;22.244;2022-12-24T03:34:37;32.22;;;24.60;;
59458;SDS011;45269;43.568;22.244;2022-12-24T03:37:03;38.40;;;28.25;;
59458;SDS011;45269;43.568;22.244;2022-12-24T03:39:28;97.05;;;63.63;;
59458;SDS011;45269;43.568;22.244;2022-12-24T03:41:53;76.47;;;50.67;;
59458;SDS011;45269;43.568;22.244;2022-12-24T03:44:19;135.57;;;89.50;;
59458;SDS011;45269;43.568;22.244;2022-12-24T03:46:44;126.82;;;83.30;;
59458;SDS011;45269;43.568;22.244;2022-12-24T03:49:09;147.48;;;94.03;;
59458;SDS011;45269;43.568;22.244;2022-12-24T03:51:35;87.75;;;61.10;;
59458;SDS011;45269;43.568;22.244;2022-12-24T03:54:00;110.18;;;78.20;;
59458;SDS011;45269;43.568;22.244;2022-12-24T03:56:25;154.32;;;105.05;;
59458;SDS011;45269;43.568;22.244;2022-12-24T03:58:50;141.30;;;95.18;;
59458;SDS011;45269;43.568;22.244;2022-12-24T04:01:16;98.60;;;71.55;;
59458;SDS011;45269;43.568;22.244;2022-12-24T04:03:41;143.55;;;95.22;;
59458;SDS011;45269;43.568;22.244;2022-12-24T04:06:08;110.53;;;79.55;;
59458;SDS011;45269;43.568;22.244;2022-12-24T04:08:33;73.07;;;54.70;;
59458;SDS011;45269;43.568;22.244;2022-12-24T04:10:59;50.13;;;37.65;;
59458;SDS011;45269;43.568;22.244;2022-12-24T04:13:24;72.10;;;55.97;;
59458;SDS011;45269;43.568;22.244;2022-12-24T04:15:59;151.30;;;115.50;;
59458;SDS011;45269;43.568;22.244;2022-12-24T04:18:25;65.15;;;53.15;;
59458;SDS011;45269;43.568;22.244;2022-12-24T04:20:50;324.42;;;229.80;;
59458;SDS011;45269;43.568;22.244;2022-12-24T04:23:15;346.25;;;251.63;;
59458;SDS011;45269;43.568;22.244;2022-12-24T04:25:41;157.70;;;114.00;;
59458;SDS011;45269;43.568;22.244;2022-12-24T04:28:06;106.47;;;80.38;;
59458;SDS011;45269;43.568;22.244;2022-12-24T04:30:31;45.33;;;35.15;;
59458;SDS011;45269;43.568;22.244;2022-12-24T04:32:57;32.53;;;27.85;;
59458;SDS011;45269;43.568;22.244;2022-12-24T04:35:22;192.23;;;131.70;;
59458;SDS011;45269;43.568;22.244;2022-12-24T04:37:47;121.53;;;84.90;;
59458;SDS011;45269;43.568;22.244;2022-12-24T04:40:13;155.68;;;102.93;;
59458;SDS011;45269;43.568;22.244;2022-12-24T04:42:38;196.10;;;132.55;;
59458;SDS011;45269;43.568;22.244;2022-12-24T04:45:03;152.80;;;98.72;;
59458;SDS011;45269;43.568;22.244;2022-12-24T04:47:29;128.43;;;90.07;;
59458;SDS011;45269;43.568;22.244;2022-12-24T04:49:54;87.00;;;60.60;;
59458;SDS011;45269;43.568;22.244;2022-12-24T04:52:19;57.10;;;42.67;;
59458;SDS011;45269;43.568;22.244;2022-12-24T04:54:44;46.05;;;36.70;;
59458;SDS011;45269;43.568;22.244;2022-12-24T04:57:10;44.08;;;35.08;;
59458;SDS011;45269;43.568;22.244;2022-12-24T04:59:35;39.35;;;31.48;;
59458;SDS011;45269;43.568;22.244;2022-12-24T05:02:00;45.97;;;36.40;;
59458;SDS011;45269;43.568;22.244;2022-12-24T05:04:26;47.60;;;38.85;;
59458;SDS011;45269;43.568;22.244;2022-12-24T05:06:51;44.33;;;30.70;;
59458;SDS011;45269;43.568;22.244;2022-12-24T05:09:16;40.53;;;24.38;;
59458;SDS011;45269;43.568;22.244;2022-12-24T05:11:41;33.10;;;20.90;;
59458;SDS011;45269;43.568;22.244;2022-12-24T05:14:07;26.85;;;16.58;;
59458;SDS011;45269;43.568;22.244;2022-12-24T05:16:32;19.55;;;15.30;;
59458;SDS011;45269;43.568;22.244;2022-12-24T05:18:57;20.13;;;14.88;;
59458;SDS011;45269;43.568;22.244;2022-12-24T05:21:23;39.22;;;34.97;;
59458;SDS011;45269;43.568;22.244;2022-12-24T05:23:48;38.75;;;30.27;;
59458;SDS011;45269;43.568;22.244;2022-12-24T05:26:37;39.13;;;28.75;;
59458;SDS011;45269;43.568;22.244;2022-12-24T05:29:03;29.38;;;22.25;;
59458;SDS011;45269;43.568;22.244;2022-12-24T05:31:30;25.77;;;21.00;;
59458;SDS011;45269;43.568;22.244;2022-12-24T05:33:55;29.70;;;26.50;;
59458;SDS011;45269;43.568;22.244;2022-12-24T05:36:21;27.98;;;23.33;;
59458;SDS011;45269;43.568;22.244;2022-12-24T05:38:47;46.40;;;38.22;;
59458;SDS011;45269;43.568;22.244;2022-12-24T05:41:12;77.07;;;63.63;;
59458;SDS011;45269;43.568;22.244;2022-12-24T05:43:37;37.97;;;31.67;;
59458;SDS011;45269;43.568;22.244;2022-12-24T05:46:04;29.75;;;23.85;;
59458;SDS011;45269;43.568;22.244;2022-12-24T05:48:29;166.27;;;130.25;;
59458;SDS011;45269;43.568;22.244;2022-12-24T05:50:55;112.20;;;90.18;;
59458;SDS011;45269;43.568;22.244;2022-12-24T05:53:20;204.45;;;152.20;;
59458;SDS011;45269;43.568;22.244;2022-12-24T05:55:45;229.63;;;162.63;;
59458;SDS011;45269;43.568;22.244;2022-12-24T05:58:11;227.32;;;154.02;;
59458;SDS011;45269;43.568;22.244;2022-12-24T06:00:36;253.98;;;162.23;;
59458;SDS011;45269;43.568;22.244;2022-12-24T06:03:02;152.77;;;103.30;;
59458;SDS011;45269;43.568;22.244;2022-12-24T06:05:27;118.05;;;81.38;;
59458;SDS011;45269;43.568;22.244;2022-12-24T06:07:52;198.10;;;147.43;;
59458;SDS011;45269;43.568;22.244;2022-12-24T06:10:18;264.10;;;209.68;;
59458;SDS011;45269;43.568;22.244;2022-12-24T06:12:43;191.18;;;145.40;;
59458;SDS011;45269;43.568;22.244;2022-12-24T06:15:09;210.38;;;160.68;;
59458;SDS011;45269;43.568;22.244;2022-12-24T06:17:34;150.35;;;118.60;;
59458;SDS011;45269;43.568;22.244;2022-12-24T06:19:59;116.03;;;94.65;;
59458;SDS011;45269;43.568;22.244;2022-12-24T06:22:25;85.88;;;71.32;;
59458;SDS011;45269;43.568;22.244;2022-12-24T06:24:50;62.47;;;49.80;;
59458;SDS011;45269;43.568;22.244;2022-12-24T06:27:15;123.47;;;101.45;;
59458;SDS011;45269;43.568;22.244;2022-12-24T06:29:41;107.95;;;93.50;;
59458;SDS011;45269;43.568;22.244;2022-12-24T06:32:06;92.38;;;76.28;;
59458;SDS011;45269;43.568;22.244;2022-12-24T06:34:31;104.80;;;86.75;;
59458;SDS011;45269;43.568;22.244;2022-12-24T06:36:56;114.93;;;92.68;;
59458;SDS011;45269;43.568;22.244;2022-12-24T06:39:22;174.85;;;135.15;;
59458;SDS011;45269;43.568;22.244;2022-12-24T06:41:47;132.38;;;102.90;;
59458;SDS011;45269;43.568;22.244;2022-12-24T06:44:12;139.23;;;110.25;;
59458;SDS011;45269;43.568;22.244;2022-12-24T06:46:38;531.70;;;401.60;;
59458;SDS011;45269;43.568;22.244;2022-12-24T06:49:03;165.30;;;124.90;;
59458;SDS011;45269;43.568;22.244;2022-12-24T06:51:28;170.05;;;134.82;;
59458;SDS011;45269;43.568;22.244;2022-12-24T06:53:54;333.50;;;265.35;;
59458;SDS011;45269;43.568;22.244;2022-12-24T06:56:19;277.20;;;232.65;;
59458;SDS011;45269;43.568;22.244;2022-12-24T06:58:45;242.10;;;201.00;;
59458;SDS011;45269;43.568;22.244;2022-12-24T07:01:11;330.70;;;262.15;;
59458;SDS011;45269;43.568;22.244;2022-12-24T07:03:37;321.60;;;253.45;;
59458;SDS011;45269;43.568;22.244;2022-12-24T07:06:03;259.35;;;204.18;;
59458;SDS011;45269;43.568;22.244;2022-12-24T07:08:28;311.30;;;231.18;;
59458;SDS011;45269;43.568;22.244;2022-12-24T07:10:55;411.23;;;314.15;;
59458;SDS011;45269;43.568;22.244;2022-12-24T07:13:20;362.38;;;284.35;;
59458;SDS011;45269;43.568;22.244;2022-12-24T07:15:45;319.60;;;269.40;;
59458;SDS011;45269;43.568;22.244;2022-12-24T07:18:11;265.48;;;236.13;;
59458;SDS011;45269;43.568;22.244;2022-12-24T07:20:36;266.60;;;230.88;;
59458;SDS011;45269;43.568;22.244;2022-12-24T07:23:01;265.80;;;226.88;;
59458;SDS011;45269;43.568;22.244;2022-12-24T07:25:27;350.02;;;273.63;;
59458;SDS011;45269;43.568;22.244;2022-12-24T07:27:52;392.83;;;301.10;;
59458;SDS011;45269;43.568;22.244;2022-12-24T07:30:17;376.88;;;305.40;;
59458;SDS011;45269;43.568;22.244;2022-12-24T07:32:43;449.85;;;365.38;;
59458;SDS011;45269;43.568;22.244;2022-12-24T07:35:08;428.05;;;348.35;;
59458;SDS011;45269;43.568;22.244;2022-12-24T07:37:33;864.13;;;655.72;;
59458;SDS011;45269;43.568;22.244;2022-12-24T07:39:59;350.75;;;268.40;;
59458;SDS011;45269;43.568;22.244;2022-12-24T07:42:24;478.08;;;337.60;;
59458;SDS011;45269;43.568;22.244;2022-12-24T07:44:49;436.90;;;302.33;;
59458;SDS011;45269;43.568;22.244;2022-12-24T07:47:15;165.57;;;122.30;;
59458;SDS011;45269;43.568;22.244;2022-12-24T07:49:40;143.35;;;107.22;;
59458;SDS011;45269;43.568;22.244;2022-12-24T07:52:05;102.32;;;81.68;;
59458;SDS011;45269;43.568;22.244;2022-12-24T07:54:31;76.00;;;56.78;;
59458;SDS011;45269;43.568;22.244;2022-12-24T07:56:56;177.00;;;146.55;;
59458;SDS011;45269;43.568;22.244;2022-12-24T07:59:21;150.07;;;125.32;;
59458;SDS011;45269;43.568;22.244;2022-12-24T08:01:47;68.20;;;57.60;;
59458;SDS011;45269;43.568;22.244;2022-12-24T08:04:12;61.30;;;51.85;;
59458;SDS011;45269;43.568;22.244;2022-12-24T08:06:37;148.70;;;101.68;;
59458;SDS011;45269;43.568;22.244;2022-12-24T08:09:03;445.35;;;309.33;;
59458;SDS011;45269;43.568;22.244;2022-12-24T08:11:28;412.13;;;278.63;;
59458;SDS011;45269;43.568;22.244;2022-12-24T08:13:53;221.63;;;142.30;;
59458;SDS011;45269;43.568;22.244;2022-12-24T08:16:19;365.38;;;240.35;;
59458;SDS011;45269;43.568;22.244;2022-12-24T08:18:44;237.05;;;154.55;;
59458;SDS011;45269;43.568;22.244;2022-12-24T08:21:09;242.38;;;161.40;;
59458;SDS011;45269;43.568;22.244;2022-12-24T08:23:35;246.05;;;164.70;;
59458;SDS011;45269;43.568;22.244;2022-12-24T08:26:01;150.15;;;100.25;;
59458;SDS011;45269;43.568;22.244;2022-12-24T08:28:26;160.55;;;130.52;;
59458;SDS011;45269;43.568;22.244;2022-12-24T08:30:51;189.55;;;142.15;;
59458;SDS011;45269;43.568;22.244;2022-12-24T08:33:17;144.40;;;105.85;;
59458;SDS011;45269;43.568;22.244;2022-12-24T08:35:46;270.63;;;196.20;;
59458;SDS011;45269;43.568;22.244;2022-12-24T08:38:11;271.27;;;199.95;;
59458;SDS011;45269;43.568;22.244;2022-12-24T08:40:37;118.72;;;94.82;;
59458;SDS011;45269;43.568;22.244;2022-12-24T08:43:02;176.23;;;120.43;;
59458;SDS011;45269;43.568;22.244;2022-12-24T08:45:27;245.00;;;174.60;;
59458;SDS011;45269;43.568;22.244;2022-12-24T08:47:53;346.02;;;225.65;;
59458;SDS011;45269;43.568;22.244;2022-12-24T08:50:18;133.38;;;95.68;;
59458;SDS011;45269;43.568;22.244;2022-12-24T08:52:43;132.52;;;111.03;;
59458;SDS011;45269;43.568;22.244;2022-12-24T08:55:08;146.85;;;111.10;;
59458;SDS011;45269;43.568;22.244;2022-12-24T08:57:35;137.90;;;107.65;;
59458;SDS011;45269;43.568;22.244;2022-12-24T09:00:01;78.78;;;70.15;;
59458;SDS011;45269;43.568;22.244;2022-12-24T09:02:26;56.00;;;44.47;;
59458;SDS011;45269;43.568;22.244;2022-12-24T09:04:51;73.50;;;56.83;;
59458;SDS011;45269;43.568;22.244;2022-12-24T09:07:16;51.35;;;42.28;;
59458;SDS011;45269;43.568;22.244;2022-12-24T09:09:42;52.08;;;42.95;;
59458;SDS011;45269;43.568;22.244;2022-12-24T09:12:07;96.57;;;82.85;;
59458;SDS011;45269;43.568;22.244;2022-12-24T09:14:34;52.60;;;43.95;;
59458;SDS011;45269;43.568;22.244;2022-12-24T09:16:59;101.38;;;80.07;;
59458;SDS011;45269;43.568;22.244;2022-12-24T09:19:25;84.28;;;67.45;;
59458;SDS011;45269;43.568;22.244;2022-12-24T09:21:51;88.43;;;68.15;;
59458;SDS011;45269;43.568;22.244;2022-12-24T09:24:16;77.50;;;59.22;;
59458;SDS011;45269;43.568;22.244;2022-12-24T09:26:42;69.05;;;51.20;;
59458;SDS011;45269;43.568;22.244;2022-12-24T09:29:08;192.10;;;119.50;;
59458;SDS011;45269;43.568;22.244;2022-12-24T09:31:34;155.82;;;97.57;;
59458;SDS011;45269;43.568;22.244;2022-12-24T09:33:59;306.73;;;186.98;;
59458;SDS011;45269;43.568;22.244;2022-12-24T09:36:24;297.73;;;183.23;;
59458;SDS011;45269;43.568;22.244;2022-12-24T09:38:50;101.90;;;71.93;;
59458;SDS011;45269;43.568;22.244;2022-12-24T09:43:46;99.90;;;76.43;;
59458;SDS011;45269;43.568;22.244;2022-12-24T09:46:23;150.55;;;116.53;;
59458;SDS011;45269;43.568;22.244;2022-12-24T09:48:53;142.90;;;113.00;;
59458;SDS011;45269;43.568;22.244;2022-12-24T09:56:16;79.72;;;58.97;;
59458;SDS011;45269;43.568;22.244;2022-12-24T09:58:46;53.70;;;45.47;;
59458;SDS011;45269;43.568;22.244;2022-12-24T10:01:13;111.47;;;84.97;;
59458;SDS011;45269;43.568;22.244;2022-12-24T10:03:39;109.57;;;88.43;;
59458;SDS011;45269;43.568;22.244;2022-12-24T10:06:06;69.40;;;51.97;;
59458;SDS011;45269;43.568;22.244;2022-12-24T10:11:29;56.60;;;49.70;;
59458;SDS011;45269;43.568;22.244;2022-12-24T10:22:07;126.10;;;89.57;;
59458;SDS011;45269;43.568;22.244;2022-12-24T10:24:38;143.05;;;92.28;;
59458;SDS011;45269;43.568;22.244;2022-12-24T10:27:11;116.22;;;81.55;;
59458;SDS011;45269;43.568;22.244;2022-12-24T10:29:39;128.48;;;82.80;;
59458;SDS011;45269;43.568;22.244;2022-12-24T10:34:32;72.28;;;59.70;;
59458;SDS011;45269;43.568;22.244;2022-12-24T10:36:59;78.60;;;67.07;;
59458;SDS011;45269;43.568;22.244;2022-12-24T10:39:26;63.08;;;55.42;;
59458;SDS011;45269;43.568;22.244;2022-12-24T10:41:53;70.88;;;61.90;;
59458;SDS011;45269;43.568;22.244;2022-12-24T10:44:22;82.15;;;63.95;;
59458;SDS011;45269;43.568;22.244;2022-12-24T10:46:48;69.68;;;53.10;;
59458;SDS011;45269;43.568;22.244;2022-12-24T10:49:15;81.53;;;66.30;;
59458;SDS011;45269;43.568;22.244;2022-12-24T10:54:19;101.38;;;81.60;;
59458;SDS011;45269;43.568;22.244;2022-12-24T10:56:46;144.82;;;103.10;;
59458;SDS011;45269;43.568;22.244;2022-12-24T10:59:24;172.40;;;116.75;;
59458;SDS011;45269;43.568;22.244;2022-12-24T11:01:50;129.95;;;96.60;;
59458;SDS011;45269;43.568;22.244;2022-12-24T11:04:17;89.85;;;79.55;;
59458;SDS011;45269;43.568;22.244;2022-12-24T11:09:38;130.15;;;101.75;;
59458;SDS011;45269;43.568;22.244;2022-12-24T11:14:33;123.50;;;92.65;;
59458;SDS011;45269;43.568;22.244;2022-12-24T11:16:58;116.55;;;93.13;;
59458;SDS011;45269;43.568;22.244;2022-12-24T11:19:37;121.82;;;98.13;;
59458;SDS011;45269;43.568;22.244;2022-12-24T11:22:06;108.20;;;89.90;;
59458;SDS011;45269;43.568;22.244;2022-12-24T11:24:33;52.58;;;44.67;;
59458;SDS011;45269;43.568;22.244;2022-12-24T11:32:40;133.07;;;86.95;;
59458;SDS011;45269;43.568;22.244;2022-12-24T11:35:06;117.47;;;94.82;;
59458;SDS011;45269;43.568;22.244;2022-12-24T11:37:32;85.75;;;69.60;;
59458;SDS011;45269;43.568;22.244;2022-12-24T11:39:59;82.25;;;69.97;;
59458;SDS011;45269;43.568;22.244;2022-12-24T11:42:34;40.45;;;35.97;;
59458;SDS011;45269;43.568;22.244;2022-12-24T11:45:04;30.67;;;26.88;;
59458;SDS011;45269;43.568;22.244;2022-12-24T11:47:34;32.75;;;29.38;;
59458;SDS011;45269;43.568;22.244;2022-12-24T11:52:43;23.05;;;20.65;;
59458;SDS011;45269;43.568;22.244;2022-12-24T11:57:49;19.02;;;15.73;;
59458;SDS011;45269;43.568;22.244;2022-12-24T12:00:16;17.73;;;15.93;;
59458;SDS011;45269;43.568;22.244;2022-12-24T12:02:42;14.88;;;11.40;;
59458;SDS011;45269;43.568;22.244;2022-12-24T12:05:20;14.43;;;12.75;;
59458;SDS011;45269;43.568;22.244;2022-12-24T12:07:49;19.45;;;13.73;;
59458;SDS011;45269;43.568;22.244;2022-12-24T12:10:17;17.10;;;15.30;;
59458;SDS011;45269;43.568;22.244;2022-12-24T12:13:04;21.43;;;18.93;;
59458;SDS011;45269;43.568;22.244;2022-12-24T12:15:32;17.63;;;15.38;;
59458;SDS011;45269;43.568;22.244;2022-12-24T12:25:33;16.73;;;13.40;;
59458;SDS011;45269;43.568;22.244;2022-12-24T12:28:00;13.02;;;11.63;;
59458;SDS011;45269;43.568;22.244;2022-12-24T12:30:26;30.17;;;25.00;;
59458;SDS011;45269;43.568;22.244;2022-12-24T12:32:58;49.75;;;40.13;;
59458;SDS011;45269;43.568;22.244;2022-12-24T12:35:43;36.08;;;30.92;;
59458;SDS011;45269;43.568;22.244;2022-12-24T12:38:12;35.13;;;28.98;;
59458;SDS011;45269;43.568;22.244;2022-12-24T12:40:44;25.50;;;19.73;;
59458;SDS011;45269;43.568;22.244;2022-12-24T12:48:25;27.85;;;22.77;;
59458;SDS011;45269;43.568;22.244;2022-12-24T12:58:26;81.13;;;66.97;;
59458;SDS011;45269;43.568;22.244;2022-12-24T13:00:55;71.97;;;61.35;;
59458;SDS011;45269;43.568;22.244;2022-12-24T13:21:42;147.60;;;128.23;;
59458;SDS011;45269;43.568;22.244;2022-12-24T13:26:40;151.98;;;127.38;;
59458;SDS011;45269;43.568;22.244;2022-12-24T13:29:40;174.60;;;138.00;;
59458;SDS011;45269;43.568;22.244;2022-12-24T13:34:42;123.32;;;94.20;;
59458;SDS011;45269;43.568;22.244;2022-12-24T13:43:14;65.05;;;53.78;;
59458;SDS011;45269;43.568;22.244;2022-12-24T13:50:28;88.25;;;75.97;;
59458;SDS011;45269;43.568;22.244;2022-12-24T13:52:53;98.63;;;88.03;;
59458;SDS011;45269;43.568;22.244;2022-12-24T13:55:19;67.85;;;55.47;;
59458;SDS011;45269;43.568;22.244;2022-12-24T13:57:58;82.40;;;69.10;;
59458;SDS011;45269;43.568;22.244;2022-12-24T14:00:25;86.00;;;72.05;;
59458;SDS011;45269;43.568;22.244;2022-12-24T14:02:54;30.00;;;26.05;;
59458;SDS011;45269;43.568;22.244;2022-12-24T14:05:30;43.22;;;36.00;;
59458;SDS011;45269;43.568;22.244;2022-12-24T14:07:56;66.28;;;53.47;;
59458;SDS011;45269;43.568;22.244;2022-12-24T14:10:23;78.43;;;61.10;;
59458;SDS011;45269;43.568;22.244;2022-12-24T14:12:50;86.68;;;63.05;;
59458;SDS011;45269;43.568;22.244;2022-12-24T14:17:59;76.45;;;45.72;;
59458;SDS011;45269;43.568;22.244;2022-12-24T14:20:26;130.88;;;75.55;;
59458;SDS011;45269;43.568;22.244;2022-12-24T14:22:51;86.93;;;59.47;;
59458;SDS011;45269;43.568;22.244;2022-12-24T14:25:18;171.50;;;119.40;;
59458;SDS011;45269;43.568;22.244;2022-12-24T14:27:49;156.25;;;111.72;;
59458;SDS011;45269;43.568;22.244;2022-12-24T14:30:16;173.40;;;119.93;;
59458;SDS011;45269;43.568;22.244;2022-12-24T14:32:42;243.32;;;157.60;;
59458;SDS011;45269;43.568;22.244;2022-12-24T14:35:19;127.53;;;95.18;;
59458;SDS011;45269;43.568;22.244;2022-12-24T14:37:45;111.18;;;77.90;;
59458;SDS011;45269;43.568;22.244;2022-12-24T14:40:21;124.28;;;97.45;;
59458;SDS011;45269;43.568;22.244;2022-12-24T14:56:14;316.17;;;245.95;;
59458;SDS011;45269;43.568;22.244;2022-12-24T14:58:41;178.55;;;128.48;;
59458;SDS011;45269;43.568;22.244;2022-12-24T15:06:35;127.90;;;92.57;;
59458;SDS011;45269;43.568;22.244;2022-12-24T15:09:02;156.57;;;116.10;;
59458;SDS011;45269;43.568;22.244;2022-12-24T15:11:27;159.77;;;124.60;;
59458;SDS011;45269;43.568;22.244;2022-12-24T15:13:53;143.32;;;120.40;;
59458;SDS011;45269;43.568;22.244;2022-12-24T15:16:21;151.32;;;124.15;;
59458;SDS011;45269;43.568;22.244;2022-12-24T15:18:48;186.20;;;148.57;;
59458;SDS011;45269;43.568;22.244;2022-12-24T15:21:20;188.60;;;161.07;;
59458;SDS011;45269;43.568;22.244;2022-12-24T15:23:48;213.68;;;172.75;;
59458;SDS011;45269;43.568;22.244;2022-12-24T15:28:42;391.08;;;284.70;;
59458;SDS011;45269;43.568;22.244;2022-12-24T15:31:10;316.73;;;237.85;;
59458;SDS011;45269;43.568;22.244;2022-12-24T15:33:36;132.52;;;94.70;;
59458;SDS011;45269;43.568;22.244;2022-12-24T15:36:02;110.65;;;78.50;;
59458;SDS011;45269;43.568;22.244;2022-12-24T15:38:31;118.72;;;79.75;;
59458;SDS011;45269;43.568;22.244;2022-12-24T15:40:59;165.07;;;113.32;;
59458;SDS011;45269;43.568;22.244;2022-12-24T15:43:24;65.85;;;50.00;;
59458;SDS011;45269;43.568;22.244;2022-12-24T15:45:50;35.72;;;29.60;;
59458;SDS011;45269;43.568;22.244;2022-12-24T15:48:17;51.35;;;45.03;;
59458;SDS011;45269;43.568;22.244;2022-12-24T15:50:49;90.57;;;72.88;;
59458;SDS011;45269;43.568;22.244;2022-12-24T15:53:20;131.77;;;116.40;;
59458;SDS011;45269;43.568;22.244;2022-12-24T15:55:46;80.85;;;61.13;;
59458;SDS011;45269;43.568;22.244;2022-12-24T15:58:25;56.92;;;50.72;;
59458;SDS011;45269;43.568;22.244;2022-12-24T16:03:36;22.38;;;19.38;;
59458;SDS011;45269;43.568;22.244;2022-12-24T16:08:28;49.78;;;43.78;;
59458;SDS011;45269;43.568;22.244;2022-12-24T16:13:32;112.53;;;93.32;;
59458;SDS011;45269;43.568;22.244;2022-12-24T16:16:03;113.38;;;87.80;;
59458;SDS011;45269;43.568;22.244;2022-12-24T16:18:33;86.38;;;66.70;;
59458;SDS011;45269;43.568;22.244;2022-12-24T16:20:59;182.73;;;129.98;;
59458;SDS011;45269;43.568;22.244;2022-12-24T16:23:26;106.03;;;79.75;;
59458;SDS011;45269;43.568;22.244;2022-12-24T16:25:53;145.75;;;116.35;;
59458;SDS011;45269;43.568;22.244;2022-12-24T16:28:18;79.43;;;69.90;;
59458;SDS011;45269;43.568;22.244;2022-12-24T16:30:46;62.95;;;56.58;;